sensor_id;sensor_type;location;lat;lon;timestamp;P1;durP1;ratioP1;P2;durP2;ratioP2
22166;SDS011;11249;52.468;13.776;2022-09-30T00:01:20;10.65;;;8.23;;
22166;SDS011;11249;52.468;13.776;2022-09-30T00:03:48;10.23;;;8.43;;
22166;SDS011;11249;52.468;13.776;2022-09-30T00:06:14;10.00;;;8.20;;
22166;SDS011;11249;52.468;13.776;2022-09-30T00:08:41;9.95;;;8.25;;
22166;SDS011;11249;52.468;13.776;2022-09-30T00:11:10;12.07;;;7.93;;
22166;SDS011;11249;52.468;13.776;2022-09-30T00:13:39;9.90;;;8.50;;
22166;SDS011;11249;52.468;13.776;2022-09-30T00:16:06;11.77;;;9.55;;
22166;SDS011;11249;52.468;13.776;2022-09-30T00:18:35;9.32;;;8.30;;
22166;SDS011;11249;52.468;13.776;2022-09-30T00:21:02;11.32;;;8.73;;
22166;SDS011;11249;52.468;13.776;2022-09-30T00:23:30;11.15;;;9.25;;
22166;SDS011;11249;52.468;13.776;2022-09-30T00:25:58;11.35;;;9.35;;
22166;SDS011;11249;52.468;13.776;2022-09-30T00:28:27;9.50;;;8.43;;
22166;SDS011;11249;52.468;13.776;2022-09-30T00:30:58;11.55;;;8.95;;
22166;SDS011;11249;52.468;13.776;2022-09-30T00:33:30;10.52;;;8.73;;
22166;SDS011;11249;52.468;13.776;2022-09-30T00:35:57;10.23;;;8.90;;
22166;SDS011;11249;52.468;13.776;2022-09-30T00:38:24;12.13;;;9.00;;
22166;SDS011;11249;52.468;13.776;2022-09-30T00:40:51;10.48;;;9.38;;
22166;SDS011;11249;52.468;13.776;2022-09-30T00:43:19;12.38;;;10.68;;
22166;SDS011;11249;52.468;13.776;2022-09-30T00:46:04;11.07;;;9.13;;
22166;SDS011;11249;52.468;13.776;2022-09-30T00:48:35;11.18;;;9.27;;
22166;SDS011;11249;52.468;13.776;2022-09-30T00:51:03;12.02;;;10.02;;
22166;SDS011;11249;52.468;13.776;2022-09-30T00:53:51;11.65;;;9.15;;
22166;SDS011;11249;52.468;13.776;2022-09-30T00:56:24;12.35;;;9.88;;
22166;SDS011;11249;52.468;13.776;2022-09-30T00:59:04;12.30;;;10.20;;
22166;SDS011;11249;52.468;13.776;2022-09-30T01:01:36;12.73;;;9.65;;
22166;SDS011;11249;52.468;13.776;2022-09-30T01:04:09;12.32;;;8.70;;
22166;SDS011;11249;52.468;13.776;2022-09-30T01:06:37;10.95;;;9.23;;
22166;SDS011;11249;52.468;13.776;2022-09-30T01:09:05;13.18;;;9.52;;
22166;SDS011;11249;52.468;13.776;2022-09-30T01:11:32;10.73;;;9.05;;
22166;SDS011;11249;52.468;13.776;2022-09-30T01:14:00;10.93;;;8.85;;
22166;SDS011;11249;52.468;13.776;2022-09-30T01:16:33;11.63;;;9.52;;
22166;SDS011;11249;52.468;13.776;2022-09-30T01:21:50;11.40;;;8.13;;
22166;SDS011;11249;52.468;13.776;2022-09-30T01:24:57;11.68;;;9.00;;
22166;SDS011;11249;52.468;13.776;2022-09-30T01:36:35;9.98;;;8.48;;
22166;SDS011;11249;52.468;13.776;2022-09-30T01:41:56;11.30;;;9.07;;
22166;SDS011;11249;52.468;13.776;2022-09-30T01:47:36;11.00;;;9.50;;
22166;SDS011;11249;52.468;13.776;2022-09-30T01:50:17;11.82;;;8.05;;
22166;SDS011;11249;52.468;13.776;2022-09-30T01:53:54;9.73;;;8.25;;
22166;SDS011;11249;52.468;13.776;2022-09-30T01:56:07;12.05;;;9.18;;
22166;SDS011;11249;52.468;13.776;2022-09-30T01:58:42;9.38;;;8.20;;
22166;SDS011;11249;52.468;13.776;2022-09-30T02:01:15;9.82;;;8.80;;
22166;SDS011;11249;52.468;13.776;2022-09-30T02:03:48;12.38;;;9.15;;
22166;SDS011;11249;52.468;13.776;2022-09-30T02:06:22;11.65;;;9.30;;
22166;SDS011;11249;52.468;13.776;2022-09-30T02:08:56;9.68;;;8.68;;
22166;SDS011;11249;52.468;13.776;2022-09-30T02:11:26;13.50;;;9.45;;
22166;SDS011;11249;52.468;13.776;2022-09-30T02:13:57;11.32;;;9.13;;
22166;SDS011;11249;52.468;13.776;2022-09-30T02:19:21;12.05;;;9.43;;
22166;SDS011;11249;52.468;13.776;2022-09-30T02:22:03;10.48;;;8.48;;
22166;SDS011;11249;52.468;13.776;2022-09-30T02:24:54;11.43;;;9.07;;
22166;SDS011;11249;52.468;13.776;2022-09-30T02:27:30;10.27;;;8.60;;
22166;SDS011;11249;52.468;13.776;2022-09-30T02:30:07;8.40;;;7.50;;
22166;SDS011;11249;52.468;13.776;2022-09-30T02:32:38;10.32;;;8.38;;
22166;SDS011;11249;52.468;13.776;2022-09-30T02:35:13;11.98;;;8.73;;
22166;SDS011;11249;52.468;13.776;2022-09-30T02:37:48;11.35;;;9.43;;
22166;SDS011;11249;52.468;13.776;2022-09-30T02:40:37;11.07;;;8.70;;
22166;SDS011;11249;52.468;13.776;2022-09-30T02:43:10;9.90;;;8.38;;
22166;SDS011;11249;52.468;13.776;2022-09-30T02:45:48;10.77;;;8.38;;
22166;SDS011;11249;52.468;13.776;2022-09-30T02:48:41;9.77;;;8.25;;
22166;SDS011;11249;52.468;13.776;2022-09-30T02:51:35;9.60;;;8.18;;
22166;SDS011;11249;52.468;13.776;2022-09-30T02:54:16;9.02;;;7.68;;
22166;SDS011;11249;52.468;13.776;2022-09-30T03:00:05;8.93;;;7.80;;
22166;SDS011;11249;52.468;13.776;2022-09-30T03:02:38;11.32;;;9.27;;
22166;SDS011;11249;52.468;13.776;2022-09-30T03:05:05;12.05;;;8.95;;
22166;SDS011;11249;52.468;13.776;2022-09-30T03:07:33;11.35;;;9.23;;
22166;SDS011;11249;52.468;13.776;2022-09-30T03:10:05;11.48;;;8.90;;
22166;SDS011;11249;52.468;13.776;2022-09-30T03:12:41;10.27;;;9.13;;
22166;SDS011;11249;52.468;13.776;2022-09-30T03:18:56;10.27;;;8.98;;
22166;SDS011;11249;52.468;13.776;2022-09-30T03:22:02;10.65;;;9.38;;
22166;SDS011;11249;52.468;13.776;2022-09-30T03:28:08;11.90;;;9.27;;
22166;SDS011;11249;52.468;13.776;2022-09-30T03:30:54;11.80;;;9.13;;
22166;SDS011;11249;52.468;13.776;2022-09-30T03:33:50;10.02;;;8.82;;
22166;SDS011;11249;52.468;13.776;2022-09-30T03:39:00;10.07;;;8.95;;
22166;SDS011;11249;52.468;13.776;2022-09-30T03:41:52;13.80;;;11.18;;
22166;SDS011;11249;52.468;13.776;2022-09-30T03:44:40;11.63;;;9.60;;
22166;SDS011;11249;52.468;13.776;2022-09-30T03:47:23;13.05;;;9.13;;
22166;SDS011;11249;52.468;13.776;2022-09-30T03:49:53;12.65;;;9.52;;
22166;SDS011;11249;52.468;13.776;2022-09-30T03:52:25;13.93;;;10.23;;
22166;SDS011;11249;52.468;13.776;2022-09-30T03:54:56;13.80;;;10.23;;
22166;SDS011;11249;52.468;13.776;2022-09-30T03:57:25;12.75;;;9.88;;
22166;SDS011;11249;52.468;13.776;2022-09-30T03:59:55;13.73;;;10.43;;
22166;SDS011;11249;52.468;13.776;2022-09-30T04:02:23;13.18;;;10.27;;
22166;SDS011;11249;52.468;13.776;2022-09-30T04:04:51;11.43;;;9.98;;
22166;SDS011;11249;52.468;13.776;2022-09-30T04:07:18;12.38;;;10.30;;
22166;SDS011;11249;52.468;13.776;2022-09-30T04:09:45;15.00;;;10.98;;
22166;SDS011;11249;52.468;13.776;2022-09-30T04:12:11;14.85;;;10.10;;
22166;SDS011;11249;52.468;13.776;2022-09-30T04:14:38;14.35;;;10.48;;
22166;SDS011;11249;52.468;13.776;2022-09-30T04:17:05;12.52;;;9.93;;
22166;SDS011;11249;52.468;13.776;2022-09-30T04:19:32;14.65;;;11.07;;
22166;SDS011;11249;52.468;13.776;2022-09-30T04:22:03;16.38;;;12.20;;
22166;SDS011;11249;52.468;13.776;2022-09-30T04:24:29;13.63;;;11.13;;
22166;SDS011;11249;52.468;13.776;2022-09-30T04:26:56;16.13;;;10.68;;
22166;SDS011;11249;52.468;13.776;2022-09-30T04:29:23;13.13;;;10.00;;
22166;SDS011;11249;52.468;13.776;2022-09-30T04:31:50;12.00;;;10.27;;
22166;SDS011;11249;52.468;13.776;2022-09-30T04:34:17;12.05;;;10.40;;
22166;SDS011;11249;52.468;13.776;2022-09-30T04:36:43;12.85;;;9.60;;
22166;SDS011;11249;52.468;13.776;2022-09-30T04:39:10;12.70;;;9.55;;
22166;SDS011;11249;52.468;13.776;2022-09-30T04:41:37;13.75;;;9.90;;
22166;SDS011;11249;52.468;13.776;2022-09-30T04:44:03;12.40;;;9.52;;
22166;SDS011;11249;52.468;13.776;2022-09-30T04:46:34;10.02;;;8.98;;
22166;SDS011;11249;52.468;13.776;2022-09-30T04:49:02;14.07;;;11.05;;
22166;SDS011;11249;52.468;13.776;2022-09-30T04:51:34;14.05;;;10.10;;
22166;SDS011;11249;52.468;13.776;2022-09-30T04:54:01;13.35;;;9.73;;
22166;SDS011;11249;52.468;13.776;2022-09-30T04:56:28;11.02;;;9.35;;
22166;SDS011;11249;52.468;13.776;2022-09-30T04:58:55;13.13;;;9.80;;
22166;SDS011;11249;52.468;13.776;2022-09-30T05:01:21;11.70;;;9.63;;
22166;SDS011;11249;52.468;13.776;2022-09-30T05:03:48;11.82;;;9.55;;
22166;SDS011;11249;52.468;13.776;2022-09-30T05:06:15;11.15;;;9.52;;
22166;SDS011;11249;52.468;13.776;2022-09-30T05:08:43;15.77;;;11.35;;
22166;SDS011;11249;52.468;13.776;2022-09-30T05:11:18;12.00;;;9.98;;
22166;SDS011;11249;52.468;13.776;2022-09-30T05:13:46;11.80;;;9.25;;
22166;SDS011;11249;52.468;13.776;2022-09-30T05:16:14;12.85;;;9.90;;
22166;SDS011;11249;52.468;13.776;2022-09-30T05:18:42;15.73;;;11.40;;
22166;SDS011;11249;52.468;13.776;2022-09-30T05:21:12;13.07;;;10.48;;
22166;SDS011;11249;52.468;13.776;2022-09-30T05:23:40;14.30;;;10.68;;
22166;SDS011;11249;52.468;13.776;2022-09-30T05:26:06;16.42;;;11.00;;
22166;SDS011;11249;52.468;13.776;2022-09-30T05:28:37;13.85;;;10.57;;
22166;SDS011;11249;52.468;13.776;2022-09-30T05:31:04;14.18;;;10.48;;
22166;SDS011;11249;52.468;13.776;2022-09-30T05:33:31;17.23;;;11.13;;
22166;SDS011;11249;52.468;13.776;2022-09-30T05:36:00;14.13;;;10.35;;
22166;SDS011;11249;52.468;13.776;2022-09-30T05:38:29;14.95;;;10.85;;
22166;SDS011;11249;52.468;13.776;2022-09-30T05:40:55;16.17;;;10.88;;
22166;SDS011;11249;52.468;13.776;2022-09-30T05:43:22;15.35;;;10.68;;
22166;SDS011;11249;52.468;13.776;2022-09-30T05:45:53;14.85;;;10.43;;
22166;SDS011;11249;52.468;13.776;2022-09-30T05:48:21;13.45;;;10.25;;
22166;SDS011;11249;52.468;13.776;2022-09-30T05:50:52;17.67;;;12.20;;
22166;SDS011;11249;52.468;13.776;2022-09-30T05:53:22;14.63;;;9.48;;
22166;SDS011;11249;52.468;13.776;2022-09-30T05:55:50;14.85;;;10.65;;
22166;SDS011;11249;52.468;13.776;2022-09-30T05:58:17;16.20;;;10.85;;
22166;SDS011;11249;52.468;13.776;2022-09-30T06:00:44;20.90;;;12.13;;
22166;SDS011;11249;52.468;13.776;2022-09-30T06:03:13;14.57;;;10.60;;
22166;SDS011;11249;52.468;13.776;2022-09-30T06:05:40;17.30;;;10.13;;
22166;SDS011;11249;52.468;13.776;2022-09-30T06:08:08;13.18;;;9.43;;
22166;SDS011;11249;52.468;13.776;2022-09-30T06:10:35;14.75;;;10.98;;
22166;SDS011;11249;52.468;13.776;2022-09-30T06:13:05;15.30;;;10.23;;
22166;SDS011;11249;52.468;13.776;2022-09-30T06:15:32;12.98;;;10.75;;
22166;SDS011;11249;52.468;13.776;2022-09-30T06:17:59;16.67;;;10.98;;
22166;SDS011;11249;52.468;13.776;2022-09-30T06:20:25;15.38;;;11.35;;
22166;SDS011;11249;52.468;13.776;2022-09-30T06:22:52;18.27;;;12.60;;
22166;SDS011;11249;52.468;13.776;2022-09-30T06:25:19;17.65;;;11.57;;
22166;SDS011;11249;52.468;13.776;2022-09-30T06:27:47;17.85;;;12.07;;
22166;SDS011;11249;52.468;13.776;2022-09-30T06:30:15;18.63;;;12.60;;
22166;SDS011;11249;52.468;13.776;2022-09-30T06:32:42;20.17;;;13.30;;
22166;SDS011;11249;52.468;13.776;2022-09-30T06:35:09;20.00;;;13.70;;
22166;SDS011;11249;52.468;13.776;2022-09-30T06:37:36;18.00;;;14.00;;
22166;SDS011;11249;52.468;13.776;2022-09-30T06:40:04;20.08;;;13.98;;
22166;SDS011;11249;52.468;13.776;2022-09-30T06:42:31;22.42;;;15.48;;
22166;SDS011;11249;52.468;13.776;2022-09-30T06:44:58;24.92;;;17.02;;
22166;SDS011;11249;52.468;13.776;2022-09-30T06:47:25;24.40;;;17.88;;
22166;SDS011;11249;52.468;13.776;2022-09-30T06:49:52;29.50;;;18.58;;
22166;SDS011;11249;52.468;13.776;2022-09-30T06:52:24;24.33;;;18.77;;
22166;SDS011;11249;52.468;13.776;2022-09-30T06:54:51;26.10;;;17.73;;
22166;SDS011;11249;52.468;13.776;2022-09-30T06:57:22;29.65;;;20.80;;
22166;SDS011;11249;52.468;13.776;2022-09-30T06:59:51;30.95;;;20.33;;
22166;SDS011;11249;52.468;13.776;2022-09-30T07:02:19;30.10;;;20.85;;
22166;SDS011;11249;52.468;13.776;2022-09-30T07:04:47;33.45;;;22.15;;
22166;SDS011;11249;52.468;13.776;2022-09-30T07:07:13;32.72;;;20.63;;
22166;SDS011;11249;52.468;13.776;2022-09-30T07:09:40;40.25;;;22.70;;
22166;SDS011;11249;52.468;13.776;2022-09-30T07:12:08;35.55;;;22.70;;
22166;SDS011;11249;52.468;13.776;2022-09-30T07:14:35;33.38;;;22.48;;
22166;SDS011;11249;52.468;13.776;2022-09-30T07:17:02;38.53;;;22.50;;
22166;SDS011;11249;52.468;13.776;2022-09-30T07:19:30;35.45;;;21.23;;
22166;SDS011;11249;52.468;13.776;2022-09-30T07:21:59;33.75;;;22.23;;
22166;SDS011;11249;52.468;13.776;2022-09-30T07:24:46;40.95;;;23.58;;
22166;SDS011;11249;52.468;13.776;2022-09-30T07:27:13;32.85;;;23.42;;
22166;SDS011;11249;52.468;13.776;2022-09-30T07:29:40;33.15;;;22.05;;
22166;SDS011;11249;52.468;13.776;2022-09-30T07:32:26;39.67;;;23.08;;
22166;SDS011;11249;52.468;13.776;2022-09-30T07:34:53;28.90;;;21.83;;
22166;SDS011;11249;52.468;13.776;2022-09-30T07:37:20;28.83;;;20.45;;
22166;SDS011;11249;52.468;13.776;2022-09-30T07:39:49;33.35;;;21.38;;
22166;SDS011;11249;52.468;13.776;2022-09-30T07:42:16;35.42;;;22.85;;
22166;SDS011;11249;52.468;13.776;2022-09-30T07:44:48;29.70;;;20.95;;
22166;SDS011;11249;52.468;13.776;2022-09-30T07:47:17;29.90;;;20.42;;
22166;SDS011;11249;52.468;13.776;2022-09-30T07:49:45;25.63;;;19.77;;
22166;SDS011;11249;52.468;13.776;2022-09-30T07:52:12;29.33;;;21.27;;
22166;SDS011;11249;52.468;13.776;2022-09-30T07:54:40;26.00;;;18.80;;
22166;SDS011;11249;52.468;13.776;2022-09-30T07:57:14;27.65;;;21.10;;
22166;SDS011;11249;52.468;13.776;2022-09-30T07:59:42;27.75;;;20.58;;
22166;SDS011;11249;52.468;13.776;2022-09-30T08:02:15;29.27;;;21.45;;
22166;SDS011;11249;52.468;13.776;2022-09-30T08:04:44;25.67;;;19.45;;
22166;SDS011;11249;52.468;13.776;2022-09-30T08:07:12;23.90;;;19.02;;
22166;SDS011;11249;52.468;13.776;2022-09-30T08:09:40;25.70;;;17.98;;
22166;SDS011;11249;52.468;13.776;2022-09-30T08:12:07;25.20;;;17.55;;
22166;SDS011;11249;52.468;13.776;2022-09-30T08:14:35;23.00;;;17.52;;
22166;SDS011;11249;52.468;13.776;2022-09-30T08:17:01;23.15;;;17.00;;
22166;SDS011;11249;52.468;13.776;2022-09-30T08:19:29;23.77;;;16.35;;
22166;SDS011;11249;52.468;13.776;2022-09-30T08:21:56;22.42;;;16.38;;
22166;SDS011;11249;52.468;13.776;2022-09-30T08:24:24;20.35;;;15.93;;
22166;SDS011;11249;52.468;13.776;2022-09-30T08:26:52;21.35;;;15.88;;
22166;SDS011;11249;52.468;13.776;2022-09-30T08:29:18;20.40;;;14.52;;
22166;SDS011;11249;52.468;13.776;2022-09-30T08:32:06;19.52;;;13.75;;
22166;SDS011;11249;52.468;13.776;2022-09-30T08:34:32;21.67;;;15.90;;
22166;SDS011;11249;52.468;13.776;2022-09-30T08:37:01;16.60;;;14.05;;
22166;SDS011;11249;52.468;13.776;2022-09-30T08:39:34;15.68;;;13.02;;
22166;SDS011;11249;52.468;13.776;2022-09-30T08:42:08;23.40;;;13.45;;
22166;SDS011;11249;52.468;13.776;2022-09-30T08:50:57;13.32;;;11.55;;
22166;SDS011;11249;52.468;13.776;2022-09-30T08:53:24;17.48;;;11.40;;
22166;SDS011;11249;52.468;13.776;2022-09-30T08:55:55;13.23;;;10.85;;
22166;SDS011;11249;52.468;13.776;2022-09-30T08:58:29;14.80;;;10.85;;
22166;SDS011;11249;52.468;13.776;2022-09-30T09:03:58;11.80;;;10.27;;
22166;SDS011;11249;52.468;13.776;2022-09-30T09:06:32;12.77;;;10.35;;
22166;SDS011;11249;52.468;13.776;2022-09-30T09:09:10;15.73;;;10.65;;
22166;SDS011;11249;52.468;13.776;2022-09-30T09:14:38;14.75;;;9.82;;
22166;SDS011;11249;52.468;13.776;2022-09-30T09:18:06;12.05;;;9.00;;
22166;SDS011;11249;52.468;13.776;2022-09-30T09:20:45;11.13;;;8.38;;
22166;SDS011;11249;52.468;13.776;2022-09-30T09:23:23;10.60;;;8.65;;
22166;SDS011;11249;52.468;13.776;2022-09-30T09:25:51;10.68;;;8.48;;
22166;SDS011;11249;52.468;13.776;2022-09-30T09:28:22;10.95;;;7.93;;
22166;SDS011;11249;52.468;13.776;2022-09-30T09:31:11;9.23;;;7.78;;
22166;SDS011;11249;52.468;13.776;2022-09-30T09:33:42;8.88;;;7.28;;
22166;SDS011;11249;52.468;13.776;2022-09-30T09:36:23;9.63;;;6.65;;
22166;SDS011;11249;52.468;13.776;2022-09-30T09:41:30;9.43;;;6.65;;
22166;SDS011;11249;52.468;13.776;2022-09-30T09:44:24;6.68;;;6.05;;
22166;SDS011;11249;52.468;13.776;2022-09-30T09:46:59;6.63;;;6.00;;
22166;SDS011;11249;52.468;13.776;2022-09-30T09:49:32;6.63;;;5.78;;
22166;SDS011;11249;52.468;13.776;2022-09-30T09:54:40;8.10;;;5.65;;
22166;SDS011;11249;52.468;13.776;2022-09-30T09:57:09;6.80;;;5.30;;
22166;SDS011;11249;52.468;13.776;2022-09-30T09:59:37;6.40;;;;;
22166;SDS011;11249;52.468;13.776;2022-09-30T10:03:02;7.90;;;5.18;;
22166;SDS011;11249;52.468;13.776;2022-09-30T10:05:38;6.22;;;4.80;;
22166;SDS011;11249;52.468;13.776;2022-09-30T10:10:51;7.32;;;5.22;;
22166;SDS011;11249;52.468;13.776;2022-09-30T10:13:25;5.70;;;5.07;;
22166;SDS011;11249;52.468;13.776;2022-09-30T10:15:55;5.35;;;4.50;;
22166;SDS011;11249;52.468;13.776;2022-09-30T10:18:28;4.47;;;3.60;;
22166;SDS011;11249;52.468;13.776;2022-09-30T10:21:02;7.32;;;4.20;;
22166;SDS011;11249;52.468;13.776;2022-09-30T10:23:35;5.20;;;4.10;;
22166;SDS011;11249;52.468;13.776;2022-09-30T10:28:50;4.82;;;3.78;;
22166;SDS011;11249;52.468;13.776;2022-09-30T10:31:24;4.88;;;4.15;;
22166;SDS011;11249;52.468;13.776;2022-09-30T10:36:55;3.92;;;3.53;;
22166;SDS011;11249;52.468;13.776;2022-09-30T10:39:34;3.93;;;3.33;;
22166;SDS011;11249;52.468;13.776;2022-09-30T10:42:11;5.63;;;3.60;;
22166;SDS011;11249;52.468;13.776;2022-09-30T10:44:42;3.65;;;3.35;;
22166;SDS011;11249;52.468;13.776;2022-09-30T10:47:12;4.05;;;3.38;;
22166;SDS011;11249;52.468;13.776;2022-09-30T10:49:49;4.70;;;3.67;;
22166;SDS011;11249;52.468;13.776;2022-09-30T10:52:31;4.55;;;4.05;;
22166;SDS011;11249;52.468;13.776;2022-09-30T10:55:07;4.53;;;3.40;;
22166;SDS011;11249;52.468;13.776;2022-09-30T10:57:51;5.18;;;3.20;;
22166;SDS011;11249;52.468;13.776;2022-09-30T11:00:20;3.88;;;3.35;;
22166;SDS011;11249;52.468;13.776;2022-09-30T11:03:10;7.35;;;3.78;;
22166;SDS011;11249;52.468;13.776;2022-09-30T11:05:42;5.43;;;3.22;;
22166;SDS011;11249;52.468;13.776;2022-09-30T11:11:02;4.90;;;3.25;;
22166;SDS011;11249;52.468;13.776;2022-09-30T11:16:46;4.75;;;2.90;;
22166;SDS011;11249;52.468;13.776;2022-09-30T11:19:32;4.30;;;2.72;;
22166;SDS011;11249;52.468;13.776;2022-09-30T11:24:47;4.90;;;3.05;;
22166;SDS011;11249;52.468;13.776;2022-09-30T11:27:30;3.90;;;2.55;;
22166;SDS011;11249;52.468;13.776;2022-09-30T11:30:42;4.15;;;2.95;;
22166;SDS011;11249;52.468;13.776;2022-09-30T11:33:42;4.45;;;3.13;;
22166;SDS011;11249;52.468;13.776;2022-09-30T11:36:20;3.17;;;2.65;;
22166;SDS011;11249;52.468;13.776;2022-09-30T11:39:22;3.25;;;2.72;;
22166;SDS011;11249;52.468;13.776;2022-09-30T11:42:27;3.42;;;2.50;;
22166;SDS011;11249;52.468;13.776;2022-09-30T11:45:17;2.50;;;2.30;;
22166;SDS011;11249;52.468;13.776;2022-09-30T11:50:43;3.13;;;2.40;;
22166;SDS011;11249;52.468;13.776;2022-09-30T11:53:42;4.18;;;2.63;;
22166;SDS011;11249;52.468;13.776;2022-09-30T11:56:15;3.25;;;2.90;;
22166;SDS011;11249;52.468;13.776;2022-09-30T11:58:59;4.65;;;2.65;;
22166;SDS011;11249;52.468;13.776;2022-09-30T12:01:36;2.72;;;2.40;;
22166;SDS011;11249;52.468;13.776;2022-09-30T12:04:08;2.92;;;2.47;;
22166;SDS011;11249;52.468;13.776;2022-09-30T12:06:48;3.97;;;2.53;;
22166;SDS011;11249;52.468;13.776;2022-09-30T12:09:30;3.35;;;2.50;;
22166;SDS011;11249;52.468;13.776;2022-09-30T12:12:06;3.63;;;2.45;;
22166;SDS011;11249;52.468;13.776;2022-09-30T12:14:58;3.60;;;2.35;;
22166;SDS011;11249;52.468;13.776;2022-09-30T12:17:32;6.40;;;3.03;;
22166;SDS011;11249;52.468;13.776;2022-09-30T12:20:28;4.78;;;2.83;;
22166;SDS011;11249;52.468;13.776;2022-09-30T12:23:00;3.00;;;2.42;;
22166;SDS011;11249;52.468;13.776;2022-09-30T12:26:05;4.93;;;2.30;;
22166;SDS011;11249;52.468;13.776;2022-09-30T12:37:20;3.00;;;1.67;;
22166;SDS011;11249;52.468;13.776;2022-09-30T12:45:29;4.50;;;1.90;;
22166;SDS011;11249;52.468;13.776;2022-09-30T12:48:34;2.47;;;1.88;;
22166;SDS011;11249;52.468;13.776;2022-09-30T12:51:05;2.58;;;1.65;;
22166;SDS011;11249;52.468;13.776;2022-09-30T12:53:36;4.90;;;2.10;;
22166;SDS011;11249;52.468;13.776;2022-09-30T12:56:06;2.75;;;1.98;;
22166;SDS011;11249;52.468;13.776;2022-09-30T12:58:42;2.22;;;1.70;;
22166;SDS011;11249;52.468;13.776;2022-09-30T13:01:56;5.03;;;1.90;;
22166;SDS011;11249;52.468;13.776;2022-09-30T13:12:38;3.42;;;1.80;;
22166;SDS011;11249;52.468;13.776;2022-09-30T13:14:37;2.38;;;2.13;;
22166;SDS011;11249;52.468;13.776;2022-09-30T13:17:32;7.25;;;2.25;;
22166;SDS011;11249;52.468;13.776;2022-09-30T13:20:01;2.63;;;1.95;;
22166;SDS011;11249;52.468;13.776;2022-09-30T13:22:52;2.28;;;1.92;;
22166;SDS011;11249;52.468;13.776;2022-09-30T13:25:20;2.38;;;1.85;;
22166;SDS011;11249;52.468;13.776;2022-09-30T13:28:08;2.97;;;2.67;;
22166;SDS011;11249;52.468;13.776;2022-09-30T13:30:39;4.07;;;3.03;;
22166;SDS011;11249;52.468;13.776;2022-09-30T13:33:26;4.63;;;2.58;;
22166;SDS011;11249;52.468;13.776;2022-09-30T13:36:04;4.05;;;3.10;;
22166;SDS011;11249;52.468;13.776;2022-09-30T13:38:37;2.78;;;2.55;;
22166;SDS011;11249;52.468;13.776;2022-09-30T13:41:21;6.00;;;2.40;;
22166;SDS011;11249;52.468;13.776;2022-09-30T13:44:11;4.50;;;2.30;;
22166;SDS011;11249;52.468;13.776;2022-09-30T13:46:45;2.60;;;2.40;;
22166;SDS011;11249;52.468;13.776;2022-09-30T13:52:18;4.13;;;2.50;;
22166;SDS011;11249;52.468;13.776;2022-09-30T13:57:20;3.00;;;2.22;;
22166;SDS011;11249;52.468;13.776;2022-09-30T13:59:55;4.43;;;2.35;;
22166;SDS011;11249;52.468;13.776;2022-09-30T14:05:48;2.28;;;1.85;;
22166;SDS011;11249;52.468;13.776;2022-09-30T14:08:52;2.97;;;2.25;;
22166;SDS011;11249;52.468;13.776;2022-09-30T14:11:41;3.28;;;2.00;;
22166;SDS011;11249;52.468;13.776;2022-09-30T14:17:24;4.05;;;2.03;;
22166;SDS011;11249;52.468;13.776;2022-09-30T14:22:54;4.00;;;2.05;;
22166;SDS011;11249;52.468;13.776;2022-09-30T14:25:21;3.38;;;2.40;;
22166;SDS011;11249;52.468;13.776;2022-09-30T14:27:51;4.65;;;2.05;;
22166;SDS011;11249;52.468;13.776;2022-09-30T14:30:25;4.35;;;2.67;;
22166;SDS011;11249;52.468;13.776;2022-09-30T14:32:54;4.50;;;2.75;;
22166;SDS011;11249;52.468;13.776;2022-09-30T14:35:28;7.57;;;3.97;;
22166;SDS011;11249;52.468;13.776;2022-09-30T14:37:57;4.03;;;3.15;;
22166;SDS011;11249;52.468;13.776;2022-09-30T14:40:32;7.15;;;2.60;;
22166;SDS011;11249;52.468;13.776;2022-09-30T14:43:01;2.90;;;2.53;;
22166;SDS011;11249;52.468;13.776;2022-09-30T14:45:32;3.17;;;2.88;;
22166;SDS011;11249;52.468;13.776;2022-09-30T14:48:22;2.67;;;2.47;;
22166;SDS011;11249;52.468;13.776;2022-09-30T14:51:01;2.33;;;2.13;;
22166;SDS011;11249;52.468;13.776;2022-09-30T14:53:31;3.33;;;2.53;;
22166;SDS011;11249;52.468;13.776;2022-09-30T14:56:00;2.90;;;2.37;;
22166;SDS011;11249;52.468;13.776;2022-09-30T14:58:30;2.92;;;2.53;;
22166;SDS011;11249;52.468;13.776;2022-09-30T15:01:11;4.47;;;2.40;;
22166;SDS011;11249;52.468;13.776;2022-09-30T15:03:43;3.05;;;2.50;;
22166;SDS011;11249;52.468;13.776;2022-09-30T15:06:23;5.10;;;2.65;;
22166;SDS011;11249;52.468;13.776;2022-09-30T15:08:59;2.63;;;2.30;;
22166;SDS011;11249;52.468;13.776;2022-09-30T15:11:33;4.40;;;2.55;;
22166;SDS011;11249;52.468;13.776;2022-09-30T15:14:06;3.28;;;2.60;;
22166;SDS011;11249;52.468;13.776;2022-09-30T15:16:49;6.07;;;2.60;;
22166;SDS011;11249;52.468;13.776;2022-09-30T15:22:16;5.80;;;3.92;;
22166;SDS011;11249;52.468;13.776;2022-09-30T15:24:45;4.80;;;2.90;;
22166;SDS011;11249;52.468;13.776;2022-09-30T15:27:14;11.82;;;7.72;;
22166;SDS011;11249;52.468;13.776;2022-09-30T15:29:53;4.38;;;3.92;;
22166;SDS011;11249;52.468;13.776;2022-09-30T15:32:29;5.97;;;3.20;;
22166;SDS011;11249;52.468;13.776;2022-09-30T15:35:05;2.80;;;2.30;;
22166;SDS011;11249;52.468;13.776;2022-09-30T15:37:32;3.15;;;2.58;;
22166;SDS011;11249;52.468;13.776;2022-09-30T15:40:00;4.60;;;1.88;;
22166;SDS011;11249;52.468;13.776;2022-09-30T15:42:54;7.95;;;2.00;;
22166;SDS011;11249;52.468;13.776;2022-09-30T15:45:29;5.45;;;2.30;;
22166;SDS011;11249;52.468;13.776;2022-09-30T15:50:48;2.30;;;2.10;;
22166;SDS011;11249;52.468;13.776;2022-09-30T15:53:30;4.80;;;2.38;;
22166;SDS011;11249;52.468;13.776;2022-09-30T16:01:48;2.88;;;2.30;;
22166;SDS011;11249;52.468;13.776;2022-09-30T16:09:28;4.68;;;2.78;;
22166;SDS011;11249;52.468;13.776;2022-09-30T16:12:08;3.25;;;2.10;;
22166;SDS011;11249;52.468;13.776;2022-09-30T16:14:50;3.55;;;2.20;;
22166;SDS011;11249;52.468;13.776;2022-09-30T16:17:23;4.85;;;2.05;;
22166;SDS011;11249;52.468;13.776;2022-09-30T16:20:02;4.55;;;2.55;;
22166;SDS011;11249;52.468;13.776;2022-09-30T16:27:36;3.42;;;2.50;;
22166;SDS011;11249;52.468;13.776;2022-09-30T16:30:04;6.88;;;2.55;;
22166;SDS011;11249;52.468;13.776;2022-09-30T16:32:34;5.88;;;3.05;;
22166;SDS011;11249;52.468;13.776;2022-09-30T16:35:03;3.05;;;2.70;;
22166;SDS011;11249;52.468;13.776;2022-09-30T16:37:31;6.97;;;3.42;;
22166;SDS011;11249;52.468;13.776;2022-09-30T16:39:59;4.45;;;3.10;;
22166;SDS011;11249;52.468;13.776;2022-09-30T16:42:35;8.15;;;3.28;;
22166;SDS011;11249;52.468;13.776;2022-09-30T16:45:02;7.53;;;3.40;;
22166;SDS011;11249;52.468;13.776;2022-09-30T16:47:29;5.30;;;3.00;;
22166;SDS011;11249;52.468;13.776;2022-09-30T16:49:56;8.95;;;3.58;;
22166;SDS011;11249;52.468;13.776;2022-09-30T16:52:23;7.57;;;4.10;;
22166;SDS011;11249;52.468;13.776;2022-09-30T16:54:51;7.07;;;3.47;;
22166;SDS011;11249;52.468;13.776;2022-09-30T16:57:17;5.75;;;4.00;;
22166;SDS011;11249;52.468;13.776;2022-09-30T16:59:44;5.93;;;4.05;;
22166;SDS011;11249;52.468;13.776;2022-09-30T17:02:11;5.07;;;3.75;;
22166;SDS011;11249;52.468;13.776;2022-09-30T17:04:39;5.10;;;3.50;;
22166;SDS011;11249;52.468;13.776;2022-09-30T17:07:09;9.38;;;3.95;;
22166;SDS011;11249;52.468;13.776;2022-09-30T17:09:37;7.20;;;4.30;;
22166;SDS011;11249;52.468;13.776;2022-09-30T17:12:04;11.05;;;4.43;;